Time;durP1;ratioP1;P1;durP2;ratioP2;P2;SDS_P1;SDS_P2;PMS_P1;PMS_P2;Temp;Humidity;BMP_temperature;BMP_pressure;BME280_temperature;BME280_humidity;BME280_pressure;Samples;Min_cycle;Max_cycle;Signal;HPM_P1;HPM_P2
2021/03/05 00:00:11;;;;;;;;;;;22.60;99.90;;;;;;5093624;28;19912;-89
2021/03/05 00:02:38;;;;;;;;;;;22.50;99.90;;;;;;5094882;28;19908;-87
2021/03/05 00:05:05;;;;;;;;;;;22.30;99.90;;;;;;5115649;28;19908;-88
2021/03/05 00:07:32;;;;;;;;;;;22.20;99.90;;;;;;5100498;28;19955;-87
2021/03/05 00:09:59;;;;;;;;;;;22.10;99.90;;;;;;5092436;28;19943;-87
2021/03/05 00:12:26;;;;;;;;;;;22.10;99.90;;;;;;5092598;28;19935;-87
2021/03/05 00:14:53;;;;;;;;;;;22.20;99.90;;;;;;5092511;28;20002;-86
2021/03/05 00:17:20;;;;;;;;;;;22.40;99.90;;;;;;5092842;28;19916;-87
2021/03/05 00:19:46;;;;;;;;;;;22.30;99.90;;;;;;5091452;28;20011;-87
2021/03/05 00:22:13;;;;;;;;;;;22.10;99.90;;;;;;5092659;28;19938;-87
2021/03/05 00:24:40;;;;;;;;;;;21.90;99.90;;;;;;5090884;28;20281;-87
2021/03/05 00:27:06;;;;;;;;;;;22.00;99.90;;;;;;5092910;28;20258;-87
2021/03/05 00:29:33;;;;;;;;;;;22.20;99.90;;;;;;5092257;28;19912;-87
2021/03/05 00:32:00;;;;;;;;;;;22.20;99.90;;;;;;5092811;28;19916;-88
2021/03/05 00:34:26;;;;;;;;;;;22.40;99.90;;;;;;5091808;28;19923;-87
2021/03/05 00:36:53;;;;;;;;;;;22.40;99.90;;;;;;5092981;28;19908;-82
2021/03/05 00:39:23;;;;;;;;;;;22.40;99.90;;;;;;5092687;28;20277;-84
2021/03/05 00:41:50;;;;;;;;;;;22.20;99.90;;;;;;5091743;28;19919;-85
2021/03/05 00:44:16;;;;;;;;;;;22.20;99.90;;;;;;5091633;28;19922;-85
2021/03/05 00:46:43;;;;;;;;;;;22.40;99.90;;;;;;5091990;28;20380;-86
2021/03/05 00:49:10;;;;;;;;;;;22.40;99.90;;;;;;5091338;28;19909;-82
2021/03/05 00:51:36;;;;;;;;;;;22.20;99.90;;;;;;5091405;28;19915;-79
2021/03/05 00:54:03;;;;;;;;;;;22.10;99.90;;;;;;5091244;28;19908;-77
2021/03/05 00:56:30;;;;;;;;;;;22.20;99.90;;;;;;5091068;28;19912;-78
2021/03/05 00:58:56;;;;;;;;;;;22.30;99.90;;;;;;5091264;28;20314;-82
2021/03/05 01:01:23;;;;;;;;;;;22.30;99.90;;;;;;5091253;28;20033;-82
2021/03/05 01:03:53;;;;;;;;;;;22.20;99.90;;;;;;5090615;28;19916;-82
2021/03/05 01:06:19;;;;;;;;;;;22.30;99.90;;;;;;5090705;28;19912;-80
2021/03/05 01:08:46;;;;;;;;;;;22.20;99.90;;;;;;5090212;28;19915;-83
2021/03/05 01:11:13;;;;;;;;;;;22.30;99.90;;;;;;5091238;28;19912;-80
2021/03/05 01:13:40;;;;;;;;;;;22.30;99.90;;;;;;5090691;28;19932;-82
2021/03/05 01:16:06;;;;;;;;;;;22.40;99.90;;;;;;5089170;28;19963;-82
2021/03/05 01:18:33;;;;;;;;;;;22.20;99.90;;;;;;5088820;28;19916;-82
2021/03/05 01:21:00;;;;;;;;;;;22.20;99.90;;;;;;5080021;28;20371;-81
2021/03/05 01:23:26;;;;;;;;;;;22.30;99.90;;;;;;5090805;28;19919;-80
2021/03/05 01:25:53;;;;;;;;;;;22.30;99.90;;;;;;5090003;28;19920;-81
2021/03/05 01:28:20;;;;;;;;;;;22.30;99.90;;;;;;5090004;28;20259;-81
2021/03/05 01:30:47;;;;;;;;;;;22.30;99.70;;;;;;5086962;28;19919;-80
2021/03/05 01:33:13;;;;;;;;;;;22.40;99.90;;;;;;5089944;28;19953;-78
2021/03/05 01:35:41;;;;;;;;;;;22.40;99.60;;;;;;5089660;28;19923;-79
2021/03/05 01:38:08;;;;;;;;;;;22.30;99.50;;;;;;5088617;28;19983;-79
2021/03/05 01:40:36;;;;;;;;;;;22.30;99.90;;;;;;5090620;28;19915;-79
2021/03/05 01:43:06;;;;;;;;;;;22.50;99.40;;;;;;5090770;28;19957;-79
2021/03/05 01:45:33;;;;;;;;;;;22.50;98.60;;;;;;5090043;28;19920;-80
2021/03/05 01:48:05;;;;;;;;;;;22.40;98.90;;;;;;5088169;28;19922;-78
2021/03/05 01:50:36;;;;;;;;;;;22.60;98.40;;;;;;5090434;28;19971;-80
2021/03/05 01:53:06;;;;;;;;;;;22.60;98.10;;;;;;5093929;28;20056;-78
2021/03/05 01:55:35;;;;;;;;;;;22.50;98.00;;;;;;5092873;28;19920;-76
2021/03/05 01:58:02;;;;;;;;;;;22.30;98.30;;;;;;5094409;28;19908;-78
2021/03/05 02:00:40;;;;;;;;;;;22.20;99.00;;;;;;5093665;28;19912;-80
2021/03/05 02:03:07;;;;;;;;;;;22.20;98.10;;;;;;5092187;28;19912;-81
2021/03/05 02:05:34;;;;;;;;;;;22.10;98.00;;;;;;5092966;28;19919;-79
2021/03/05 02:08:04;;;;;;;;;;;22.10;98.00;;;;;;5094492;28;19970;-80
2021/03/05 02:10:32;;;;;;;;;;;22.10;98.00;;;;;;5094196;28;20011;-79
2021/03/05 02:12:59;;;;;;;;;;;22.30;97.90;;;;;;5094148;28;20263;-78
2021/03/05 02:15:26;;;;;;;;;;;22.30;97.40;;;;;;5107151;28;19938;-79
2021/03/05 02:17:56;;;;;;;;;;;22.30;97.50;;;;;;5116291;28;19892;-77
2021/03/05 02:20:44;;;;;;;;;;;22.30;97.80;;;;;;5110368;28;19979;-79
2021/03/05 02:23:14;;;;;;;;;;;22.60;97.30;;;;;;5097126;28;19974;-80
2021/03/05 02:25:52;;;;;;;;;;;22.60;97.10;;;;;;5093843;28;19920;-79
2021/03/05 02:28:24;;;;;;;;;;;22.70;96.40;;;;;;5094056;28;19920;-78
2021/03/05 02:31:03;;;;;;;;;;;22.70;96.50;;;;;;5092710;28;19912;-81
2021/03/05 02:33:39;;;;;;;;;;;22.70;96.60;;;;;;5092966;28;19919;-80
2021/03/05 02:36:08;;;;;;;;;;;22.70;96.20;;;;;;5093692;28;20330;-79
2021/03/05 02:38:36;;;;;;;;;;;22.60;95.90;;;;;;5093710;28;19916;-78
2021/03/05 02:41:05;;;;;;;;;;;22.50;95.80;;;;;;5093587;28;19953;-78
2021/03/05 02:43:33;;;;;;;;;;;22.70;96.40;;;;;;5093220;28;19908;-79
2021/03/05 02:46:01;;;;;;;;;;;22.90;95.50;;;;;;5093325;28;20358;-77
2021/03/05 02:48:31;;;;;;;;;;;22.90;95.30;;;;;;5093502;28;20390;-78
2021/03/05 02:51:01;;;;;;;;;;;23.00;95.60;;;;;;5093447;28;19918;-79
2021/03/05 02:53:31;;;;;;;;;;;23.20;94.70;;;;;;5074855;28;19916;-78
2021/03/05 02:56:00;;;;;;;;;;;23.10;94.70;;;;;;5093499;28;20285;-78
2021/03/05 02:58:27;;;;;;;;;;;22.70;94.80;;;;;;5093723;28;19984;-79
2021/03/05 03:00:56;;;;;;;;;;;22.40;95.50;;;;;;5093302;28;19974;-81
2021/03/05 03:03:23;;;;;;;;;;;22.50;95.80;;;;;;5091418;28;19908;-78
2021/03/05 03:05:51;;;;;;;;;;;22.50;95.80;;;;;;5091547;28;19971;-80
2021/03/05 03:08:18;;;;;;;;;;;22.40;95.60;;;;;;5093201;28;19961;-81
2021/03/05 03:10:46;;;;;;;;;;;22.30;96.20;;;;;;5093287;28;19908;-81
2021/03/05 03:13:14;;;;;;;;;;;22.30;96.40;;;;;;5093272;28;19951;-77
2021/03/05 03:15:42;;;;;;;;;;;22.30;96.50;;;;;;5092185;28;19944;-80
2021/03/05 03:18:11;;;;;;;;;;;22.30;96.50;;;;;;5093609;28;19915;-80
2021/03/05 03:20:38;;;;;;;;;;;22.40;96.60;;;;;;5116294;28;19952;-81
2021/03/05 03:23:05;;;;;;;;;;;22.30;96.20;;;;;;5101578;28;19916;-81
2021/03/05 03:25:32;;;;;;;;;;;22.30;96.30;;;;;;5092933;28;20340;-81
2021/03/05 03:27:58;;;;;;;;;;;22.30;96.30;;;;;;5092800;28;19957;-81
2021/03/05 03:30:25;;;;;;;;;;;22.30;96.00;;;;;;5092612;28;19912;-80
2021/03/05 03:32:52;;;;;;;;;;;22.10;96.30;;;;;;5092157;28;19911;-81
2021/03/05 03:35:20;;;;;;;;;;;22.20;96.90;;;;;;5092276;28;20346;-82
2021/03/05 03:37:47;;;;;;;;;;;22.20;96.80;;;;;;5092732;28;19912;-81
2021/03/05 03:40:16;;;;;;;;;;;22.30;96.60;;;;;;5092476;28;19912;-82
2021/03/05 03:42:44;;;;;;;;;;;22.30;96.00;;;;;;5092265;28;20015;-81
2021/03/05 03:45:11;;;;;;;;;;;22.30;96.60;;;;;;5091139;28;20433;-80
2021/03/05 03:47:40;;;;;;;;;;;22.50;96.20;;;;;;5092212;28;19947;-80
2021/03/05 03:50:10;;;;;;;;;;;22.60;95.40;;;;;;5092197;28;19912;-79
2021/03/05 03:53:05;;;;;;;;;;;22.60;95.40;;;;;;5092363;28;19912;-80
2021/03/05 03:55:32;;;;;;;;;;;22.60;94.90;;;;;;5087227;28;19977;-79
2021/03/05 03:58:00;;;;;;;;;;;22.50;94.90;;;;;;5091813;28;20289;-79
2021/03/05 04:00:27;;;;;;;;;;;22.50;95.40;;;;;;5092067;28;19908;-80
2021/03/05 04:02:54;;;;;;;;;;;22.60;95.20;;;;;;5091772;28;19914;-82
2021/03/05 04:05:28;;;;;;;;;;;22.70;95.30;;;;;;5095495;28;19943;-80
2021/03/05 04:07:56;;;;;;;;;;;22.60;95.10;;;;;;5112323;28;19912;-78
2021/03/05 04:10:24;;;;;;;;;;;22.40;95.20;;;;;;5092235;28;19937;-81
2021/03/05 04:12:51;;;;;;;;;;;22.30;95.70;;;;;;5091609;28;19912;-80
2021/03/05 04:15:18;;;;;;;;;;;22.40;95.60;;;;;;5091407;28;19908;-79
2021/03/05 04:17:46;;;;;;;;;;;22.40;95.50;;;;;;5091913;28;19908;-80
2021/03/05 04:20:16;;;;;;;;;;;22.40;94.90;;;;;;5092078;28;19919;-79
2021/03/05 04:25:27;;;;;;;;;;;22.40;95.00;;;;;;5404206;22;19929;-79
2021/03/05 04:27:54;;;;;;;;;;;22.50;94.20;;;;;;5062047;28;20015;-80
2021/03/05 04:30:21;;;;;;;;;;;22.60;94.80;;;;;;5071972;28;19909;-80
2021/03/05 04:32:47;;;;;;;;;;;22.60;94.50;;;;;;5071672;28;19915;-80
2021/03/05 04:35:14;;;;;;;;;;;22.70;94.60;;;;;;5071717;28;20282;-80
2021/03/05 04:37:41;;;;;;;;;;;22.50;94.80;;;;;;5071358;28;19908;-80
2021/03/05 04:40:09;;;;;;;;;;;22.70;94.20;;;;;;5075220;28;19915;-81
2021/03/05 04:42:37;;;;;;;;;;;22.50;94.60;;;;;;5076386;28;19909;-80
2021/03/05 04:45:05;;;;;;;;;;;22.60;94.20;;;;;;5071994;28;20370;-80
2021/03/05 04:47:32;;;;;;;;;;;22.50;94.40;;;;;;5071471;28;19912;-81
2021/03/05 04:49:59;;;;;;;;;;;22.40;94.20;;;;;;5071453;28;19909;-81
2021/03/05 04:52:26;;;;;;;;;;;22.10;94.30;;;;;;5071008;28;19955;-81
2021/03/05 04:54:52;;;;;;;;;;;22.10;94.60;;;;;;5070754;28;19908;-80
2021/03/05 04:57:19;;;;;;;;;;;22.20;94.80;;;;;;5071521;28;19951;-80
2021/03/05 04:59:46;;;;;;;;;;;22.30;94.10;;;;;;5071511;28;19920;-80
2021/03/05 05:02:12;;;;;;;;;;;22.30;94.10;;;;;;5071520;28;19978;-80
2021/03/05 05:04:39;;;;;;;;;;;22.30;93.70;;;;;;5086489;28;19927;-80
2021/03/05 05:07:07;;;;;;;;;;;22.40;93.90;;;;;;5071057;28;20114;-80
2021/03/05 05:09:33;;;;;;;;;;;22.50;93.60;;;;;;5071229;28;20516;-82
2021/03/05 05:12:00;;;;;;;;;;;22.70;93.10;;;;;;5071269;28;19913;-81
2021/03/05 05:14:28;;;;;;;;;;;22.50;93.50;;;;;;5070978;28;20387;-80
2021/03/05 05:16:54;;;;;;;;;;;22.50;93.30;;;;;;5070543;28;19908;-77
2021/03/05 05:19:21;;;;;;;;;;;22.40;93.40;;;;;;5070857;28;19916;-80
2021/03/05 05:21:47;;;;;;;;;;;22.30;93.80;;;;;;5070665;28;19915;-81
2021/03/05 05:24:14;;;;;;;;;;;22.30;93.60;;;;;;5070149;28;20397;-80
2021/03/05 05:26:41;;;;;;;;;;;22.30;93.60;;;;;;5072739;28;20426;-81
2021/03/05 05:29:07;;;;;;;;;;;22.30;93.70;;;;;;5056740;28;19913;-79
2021/03/05 05:31:34;;;;;;;;;;;22.30;93.60;;;;;;5074229;28;19912;-80
2021/03/05 05:34:01;;;;;;;;;;;22.20;93.70;;;;;;5074669;28;19919;-80
2021/03/05 05:36:27;;;;;;;;;;;22.10;93.60;;;;;;5056562;28;19908;-79
2021/03/05 05:38:54;;;;;;;;;;;22.00;94.10;;;;;;5074569;28;19915;-79
2021/03/05 05:41:23;;;;;;;;;;;22.00;94.00;;;;;;5074722;28;19954;-79
2021/03/05 05:43:50;;;;;;;;;;;21.90;94.10;;;;;;5073967;28;19916;-79
2021/03/05 05:46:17;;;;;;;;;;;21.90;94.50;;;;;;5074243;28;19930;-79
2021/03/05 05:48:46;;;;;;;;;;;21.90;94.90;;;;;;5074737;28;20041;-80
2021/03/05 05:51:17;;;;;;;;;;;22.00;94.90;;;;;;5071095;28;19999;-79
2021/03/05 05:53:46;;;;;;;;;;;22.00;94.60;;;;;;5054236;28;19947;-81
2021/03/05 05:56:16;;;;;;;;;;;21.90;95.20;;;;;;5053550;28;19999;-80
2021/03/05 05:58:44;;;;;;;;;;;21.90;94.80;;;;;;5054662;28;19913;-79
2021/03/05 06:01:11;;;;;;;;;;;21.90;94.80;;;;;;5054463;28;19962;-78
2021/03/05 06:03:38;;;;;;;;;;;21.90;95.00;;;;;;5054324;28;19933;-79
2021/03/05 06:06:04;;;;;;;;;;;21.90;94.60;;;;;;5053644;28;19920;-80
2021/03/05 06:08:31;;;;;;;;;;;21.70;95.20;;;;;;5052064;28;19975;-80
2021/03/05 06:10:58;;;;;;;;;;;21.70;95.60;;;;;;5053454;28;19917;-80
2021/03/05 06:13:28;;;;;;;;;;;21.70;96.10;;;;;;5054276;28;20042;-78
2021/03/05 06:16:12;;;;;;;;;;;21.80;95.30;;;;;;5053996;28;19912;-79
2021/03/05 06:18:38;;;;;;;;;;;21.80;95.50;;;;;;5054640;28;19943;-79
2021/03/05 06:21:05;;;;;;;;;;;21.80;95.30;;;;;;5053479;28;19923;-79
2021/03/05 06:23:36;;;;;;;;;;;21.80;95.50;;;;;;5054150;28;20289;-78
2021/03/05 06:26:03;;;;;;;;;;;21.70;95.40;;;;;;5054570;28;19925;-79
2021/03/05 06:28:30;;;;;;;;;;;21.70;95.40;;;;;;5055062;28;19944;-79
2021/03/05 06:30:57;;;;;;;;;;;21.70;95.40;;;;;;5054011;28;19916;-79
2021/03/05 06:33:25;;;;;;;;;;;21.70;95.60;;;;;;5054826;28;19908;-79
2021/03/05 06:35:52;;;;;;;;;;;21.60;95.60;;;;;;5035243;28;19959;-79
2021/03/05 06:38:51;;;;;;;;;;;21.60;95.30;;;;;;5053315;28;19909;-78
2021/03/05 06:41:22;;;;;;;;;;;21.60;95.60;;;;;;5030140;28;19909;-79
2021/03/05 06:43:49;;;;;;;;;;;21.60;95.80;;;;;;5053131;28;19953;-80
2021/03/05 06:46:35;;;;;;;;;;;21.50;95.80;;;;;;5053363;28;20377;-79
2021/03/05 06:49:03;;;;;;;;;;;21.60;95.70;;;;;;5052568;28;19912;-80
2021/03/05 06:51:30;;;;;;;;;;;21.60;95.60;;;;;;5053884;28;19916;-79
2021/03/05 06:54:07;;;;;;;;;;;21.50;94.90;;;;;;5052907;28;20255;-80
2021/03/05 06:56:35;;;;;;;;;;;21.30;94.80;;;;;;5053209;28;20004;-79
2021/03/05 06:59:03;;;;;;;;;;;21.30;95.30;;;;;;5053589;28;19978;-79
2021/03/05 07:01:30;;;;;;;;;;;21.40;95.20;;;;;;5053237;28;19912;-80
2021/03/05 07:04:13;;;;;;;;;;;21.40;95.40;;;;;;5052395;28;19912;-80
2021/03/05 07:06:40;;;;;;;;;;;21.30;95.50;;;;;;5035302;28;19959;-80
2021/03/05 07:09:08;;;;;;;;;;;21.30;95.60;;;;;;5052860;28;19909;-79
2021/03/05 07:11:39;;;;;;;;;;;21.30;95.40;;;;;;5053059;28;19992;-80
2021/03/05 07:14:07;;;;;;;;;;;21.30;95.80;;;;;;5052188;28;19913;-79
2021/03/05 07:16:41;;;;;;;;;;;21.30;95.90;;;;;;5052519;28;19969;-78
2021/03/05 07:19:08;;;;;;;;;;;21.20;95.80;;;;;;5035153;28;19908;-77
2021/03/05 07:21:39;;;;;;;;;;;21.20;96.10;;;;;;5051803;28;19956;-80
2021/03/05 07:24:10;;;;;;;;;;;21.20;96.10;;;;;;5050364;28;19912;-79
2021/03/05 07:26:43;;;;;;;;;;;21.30;96.30;;;;;;5050754;28;19908;-79
2021/03/05 07:29:20;;;;;;;;;;;21.20;95.70;;;;;;5032427;28;19963;-80
2021/03/05 07:31:47;;;;;;;;;;;21.20;95.90;;;;;;5050428;28;19960;-80
2021/03/05 07:34:21;;;;;;;;;;;21.20;96.60;;;;;;5050453;28;19909;-79
2021/03/05 07:36:50;;;;;;;;;;;21.20;96.80;;;;;;5050957;28;19951;-80
2021/03/05 07:39:36;;;;;;;;;;;21.20;97.10;;;;;;5052211;28;19909;-80
2021/03/05 07:42:03;;;;;;;;;;;21.20;97.20;;;;;;5033836;28;19951;-80
2021/03/05 07:44:30;;;;;;;;;;;21.10;97.50;;;;;;5052334;28;19921;-80
2021/03/05 07:46:57;;;;;;;;;;;21.20;97.30;;;;;;5052300;28;19960;-79
2021/03/05 07:49:25;;;;;;;;;;;21.00;96.90;;;;;;5051612;28;19953;-79
2021/03/05 07:51:54;;;;;;;;;;;21.00;97.30;;;;;;5052361;28;19917;-78
2021/03/05 07:54:39;;;;;;;;;;;20.90;96.90;;;;;;5059765;28;20015;-78
2021/03/05 07:57:26;;;;;;;;;;;21.00;97.00;;;;;;5052569;28;20259;-79
2021/03/05 07:59:54;;;;;;;;;;;20.90;97.20;;;;;;5044336;28;20382;-80
2021/03/05 08:02:24;;;;;;;;;;;21.00;97.20;;;;;;5051850;28;19919;-80
2021/03/05 08:04:52;;;;;;;;;;;21.00;97.30;;;;;;5051445;28;19971;-79
2021/03/05 08:07:23;;;;;;;;;;;20.90;97.30;;;;;;5051395;28;19931;-79
2021/03/05 08:09:51;;;;;;;;;;;20.90;97.50;;;;;;5051386;28;19916;-80
2021/03/05 08:12:28;;;;;;;;;;;20.90;97.20;;;;;;5051898;28;19909;-80
2021/03/05 08:15:07;;;;;;;;;;;20.80;97.20;;;;;;5051702;28;19913;-79
2021/03/05 08:17:35;;;;;;;;;;;20.80;97.40;;;;;;5051769;28;19917;-79
2021/03/05 08:20:03;;;;;;;;;;;20.80;97.20;;;;;;5051219;28;20418;-80
2021/03/05 08:22:31;;;;;;;;;;;20.70;97.40;;;;;;5051585;28;20359;-79
2021/03/05 08:25:16;;;;;;;;;;;20.70;97.60;;;;;;5051234;28;19979;-79
2021/03/05 08:27:42;;;;;;;;;;;20.70;97.60;;;;;;5051547;28;20293;-80
2021/03/05 08:30:11;;;;;;;;;;;20.70;98.00;;;;;;5051451;28;19932;-80
2021/03/05 08:32:47;;;;;;;;;;;20.70;97.60;;;;;;5051216;28;19909;-80
2021/03/05 08:35:36;;;;;;;;;;;20.70;97.80;;;;;;5051126;28;19916;-80
2021/03/05 08:38:03;;;;;;;;;;;20.70;97.70;;;;;;5044147;28;19912;-80
2021/03/05 08:40:37;;;;;;;;;;;20.60;97.80;;;;;;5051216;28;20444;-80
2021/03/05 08:43:10;;;;;;;;;;;20.60;97.80;;;;;;5051194;28;19999;-80
2021/03/05 08:46:01;;;;;;;;;;;20.60;97.80;;;;;;5050713;28;19978;-79
2021/03/05 08:48:36;;;;;;;;;;;20.60;97.50;;;;;;5046317;28;19913;-80
2021/03/05 08:51:11;;;;;;;;;;;20.60;97.70;;;;;;5033218;28;19962;-79
2021/03/05 08:53:47;;;;;;;;;;;20.60;97.80;;;;;;5050903;28;19913;-79
2021/03/05 08:56:19;;;;;;;;;;;20.60;98.00;;;;;;5032524;28;19935;-82
2021/03/05 08:58:55;;;;;;;;;;;20.60;97.90;;;;;;5050745;28;19913;-80
2021/03/05 09:01:29;;;;;;;;;;;20.70;97.90;;;;;;5052015;28;19909;-79
2021/03/05 09:04:16;;;;;;;;;;;20.70;98.00;;;;;;5056484;28;19962;-79
2021/03/05 09:06:49;;;;;;;;;;;20.70;98.00;;;;;;5036361;28;19944;-81
2021/03/05 09:09:17;;;;;;;;;;;20.60;98.10;;;;;;5055339;28;19983;-79
2021/03/05 09:11:43;;;;;;;;;;;20.60;98.10;;;;;;5056048;28;20359;-80
2021/03/05 09:14:20;;;;;;;;;;;20.50;98.30;;;;;;5054448;28;19959;-80
2021/03/05 09:16:57;;;;;;;;;;;20.50;98.40;;;;;;5052554;28;19913;-80
2021/03/05 09:19:34;;;;;;;;;;;20.60;98.50;;;;;;5051507;28;19908;-79
2021/03/05 09:22:08;;;;;;;;;;;20.60;98.30;;;;;;5050954;28;19909;-78
2021/03/05 09:24:53;;;;;;;;;;;20.60;98.10;;;;;;5050107;28;19932;-78
2021/03/05 09:27:22;;;;;;;;;;;20.60;98.20;;;;;;5033256;28;20314;-80
2021/03/05 09:29:50;;;;;;;;;;;20.60;98.10;;;;;;5050592;28;19913;-79
2021/03/05 09:32:17;;;;;;;;;;;20.60;98.10;;;;;;5050799;28;19920;-79
2021/03/05 09:34:57;;;;;;;;;;;20.60;98.30;;;;;;5050728;28;19923;-79
2021/03/05 09:37:25;;;;;;;;;;;20.60;98.20;;;;;;5050572;28;19916;-80
2021/03/05 09:39:53;;;;;;;;;;;20.60;98.30;;;;;;5050372;28;19909;-79
2021/03/05 09:42:38;;;;;;;;;;;20.60;98.30;;;;;;5050664;28;19913;-80
2021/03/05 09:45:05;;;;;;;;;;;20.60;98.30;;;;;;5032402;28;19978;-80
2021/03/05 09:47:50;;;;;;;;;;;20.60;98.40;;;;;;5050470;28;19919;-80
2021/03/05 09:50:18;;;;;;;;;;;20.60;98.30;;;;;;5050520;28;19913;-79
2021/03/05 09:52:45;;;;;;;;;;;20.60;98.30;;;;;;5049957;28;19966;-79
2021/03/05 09:55:22;;;;;;;;;;;20.60;98.30;;;;;;5050894;28;19967;-84
2021/03/05 09:57:49;;;;;;;;;;;20.60;98.20;;;;;;5069992;28;19931;-78
2021/03/05 10:00:28;;;;;;;;;;;20.60;98.00;;;;;;5070295;28;19998;-78
2021/03/05 10:03:04;;;;;;;;;;;20.60;98.00;;;;;;5071594;28;19936;-81
2021/03/05 10:05:31;;;;;;;;;;;20.60;98.00;;;;;;5073445;28;19923;-82
2021/03/05 10:07:58;;;;;;;;;;;20.50;97.90;;;;;;5060262;28;19913;-82
2021/03/05 10:10:24;;;;;;;;;;;20.50;98.00;;;;;;5038170;28;19915;-80
2021/03/05 10:12:54;;;;;;;;;;;20.50;97.90;;;;;;5032107;28;19909;-81
2021/03/05 10:15:21;;;;;;;;;;;20.50;97.90;;;;;;5048835;28;19913;-81
2021/03/05 10:17:48;;;;;;;;;;;20.50;97.80;;;;;;5032835;28;19936;-80
2021/03/05 10:20:15;;;;;;;;;;;20.40;97.80;;;;;;5032671;28;19920;-81
2021/03/05 10:22:41;;;;;;;;;;;20.50;98.10;;;;;;5033478;28;19913;-81
2021/03/05 10:25:11;;;;;;;;;;;20.40;97.90;;;;;;5032420;28;19925;-82
2021/03/05 10:27:42;;;;;;;;;;;20.40;98.00;;;;;;5033252;28;20374;-80
2021/03/05 10:30:09;;;;;;;;;;;20.50;98.10;;;;;;5032893;28;19913;-78
2021/03/05 10:32:47;;;;;;;;;;;20.50;98.20;;;;;;5032557;28;20485;-79
2021/03/05 10:35:16;;;;;;;;;;;20.40;98.30;;;;;;5033095;28;19909;-80
2021/03/05 10:37:43;;;;;;;;;;;20.40;98.30;;;;;;5048776;28;19975;-79
2021/03/05 10:40:12;;;;;;;;;;;20.50;98.30;;;;;;5051889;28;19909;-79
2021/03/05 10:42:38;;;;;;;;;;;20.50;98.20;;;;;;5052744;28;19959;-81
2021/03/05 10:45:05;;;;;;;;;;;20.40;98.30;;;;;;5051703;28;19925;-81
2021/03/05 10:47:33;;;;;;;;;;;20.40;98.20;;;;;;5052492;28;19916;-80
2021/03/05 10:50:01;;;;;;;;;;;20.40;98.40;;;;;;5051912;28;19916;-81
2021/03/05 10:52:27;;;;;;;;;;;20.40;98.40;;;;;;5051925;28;19917;-80
2021/03/05 10:54:54;;;;;;;;;;;20.40;98.60;;;;;;5051438;28;19991;-82
2021/03/05 10:57:22;;;;;;;;;;;20.40;98.80;;;;;;5034440;28;19940;-80
2021/03/05 10:59:49;;;;;;;;;;;20.40;98.90;;;;;;5052695;28;19913;-80
2021/03/05 11:02:17;;;;;;;;;;;20.40;98.90;;;;;;5052786;28;20027;-81
2021/03/05 11:04:43;;;;;;;;;;;20.30;98.80;;;;;;5034131;28;20370;-80
2021/03/05 11:07:11;;;;;;;;;;;20.30;99.10;;;;;;5052481;28;20007;-81
2021/03/05 11:09:37;;;;;;;;;;;20.40;99.40;;;;;;5051388;28;19952;-81
2021/03/05 11:12:04;;;;;;;;;;;20.40;99.00;;;;;;5052142;28;19911;-82
2021/03/05 11:14:31;;;;;;;;;;;20.40;99.00;;;;;;5033780;28;19917;-82
2021/03/05 11:16:59;;;;;;;;;;;20.40;98.80;;;;;;5052172;28;19913;-78
2021/03/05 11:19:26;;;;;;;;;;;20.30;99.00;;;;;;5052071;28;19920;-80
2021/03/05 11:21:53;;;;;;;;;;;20.30;98.90;;;;;;5034264;28;20350;-80
2021/03/05 11:24:20;;;;;;;;;;;20.30;99.10;;;;;;5051139;28;19921;-79
2021/03/05 11:26:48;;;;;;;;;;;20.30;99.10;;;;;;5051777;28;20260;-80
2021/03/05 11:29:15;;;;;;;;;;;20.20;99.20;;;;;;5051863;28;19912;-79
2021/03/05 11:31:42;;;;;;;;;;;20.20;99.40;;;;;;5051195;28;19932;-79
2021/03/05 11:34:08;;;;;;;;;;;20.20;99.50;;;;;;5051898;28;19913;-79
2021/03/05 11:36:35;;;;;;;;;;;20.20;99.50;;;;;;5051520;28;19952;-79
2021/03/05 11:39:02;;;;;;;;;;;20.10;99.50;;;;;;5050732;28;19909;-80
2021/03/05 11:41:29;;;;;;;;;;;20.10;99.70;;;;;;5052011;28;20361;-79
2021/03/05 11:43:56;;;;;;;;;;;20.10;99.70;;;;;;5051443;28;20004;-81
2021/03/05 11:46:27;;;;;;;;;;;20.20;99.90;;;;;;5051963;28;19925;-80
2021/03/05 11:48:53;;;;;;;;;;;20.10;99.90;;;;;;5051501;28;19992;-79
2021/03/05 11:51:20;;;;;;;;;;;20.10;99.90;;;;;;5035969;28;19920;-79
2021/03/05 11:53:47;;;;;;;;;;;20.00;99.90;;;;;;5055627;28;19957;-80
2021/03/05 11:56:14;;;;;;;;;;;20.00;99.90;;;;;;5057745;28;19912;-79
2021/03/05 11:58:40;;;;;;;;;;;19.90;99.90;;;;;;5057969;28;20362;-79
2021/03/05 12:01:07;;;;;;;;;;;19.80;99.90;;;;;;5059905;28;19920;-81
2021/03/05 12:03:35;;;;;;;;;;;19.90;99.90;;;;;;5059071;28;20000;-80
2021/03/05 12:06:02;;;;;;;;;;;19.90;99.90;;;;;;5058584;28;19943;-80
2021/03/05 12:08:28;;;;;;;;;;;19.90;99.90;;;;;;5052035;28;19958;-80
2021/03/05 12:10:55;;;;;;;;;;;19.80;99.90;;;;;;5053207;28;19992;-80
2021/03/05 12:13:23;;;;;;;;;;;19.80;99.90;;;;;;5052184;28;19963;-81
2021/03/05 12:15:50;;;;;;;;;;;19.90;99.90;;;;;;5050779;28;19919;-79
2021/03/05 12:18:16;;;;;;;;;;;19.90;99.90;;;;;;5050995;28;19917;-79
2021/03/05 12:20:43;;;;;;;;;;;19.90;99.90;;;;;;5051104;28;19913;-80
2021/03/05 12:23:12;;;;;;;;;;;19.90;99.90;;;;;;5050229;28;19909;-80
2021/03/05 12:25:39;;;;;;;;;;;19.90;99.90;;;;;;5051083;28;19921;-79
2021/03/05 12:28:08;;;;;;;;;;;19.80;99.90;;;;;;5062578;28;19917;-80
2021/03/05 12:30:36;;;;;;;;;;;19.80;99.90;;;;;;5051175;28;19963;-80
2021/03/05 12:33:04;;;;;;;;;;;19.70;99.90;;;;;;5049468;28;19952;-80
2021/03/05 12:35:31;;;;;;;;;;;19.80;99.90;;;;;;5050578;28;19920;-79
2021/03/05 12:37:57;;;;;;;;;;;19.80;99.90;;;;;;5049865;28;19975;-78
2021/03/05 12:40:24;;;;;;;;;;;19.80;99.90;;;;;;5050606;28;19953;-80
2021/03/05 12:42:55;;;;;;;;;;;19.90;99.90;;;;;;5050117;28;19909;-80
2021/03/05 12:45:22;;;;;;;;;;;19.80;99.90;;;;;;5050687;28;19923;-80
2021/03/05 12:47:50;;;;;;;;;;;19.80;99.90;;;;;;5050519;28;19909;-83
2021/03/05 12:50:17;;;;;;;;;;;19.80;99.90;;;;;;5051976;28;19913;-79
2021/03/05 12:52:46;;;;;;;;;;;19.70;99.90;;;;;;5071106;28;20285;-80
2021/03/05 12:55:15;;;;;;;;;;;19.70;99.90;;;;;;5070327;28;20439;-80
2021/03/05 12:57:42;;;;;;;;;;;19.60;99.90;;;;;;5053317;28;20295;-80
2021/03/05 13:00:09;;;;;;;;;;;19.60;99.90;;;;;;5070721;28;19924;-81
2021/03/05 13:02:38;;;;;;;;;;;19.60;99.90;;;;;;5069496;28;19920;-81
2021/03/05 13:05:05;;;;;;;;;;;19.50;99.90;;;;;;5069882;28;19996;-79
2021/03/05 13:07:32;;;;;;;;;;;19.60;99.90;;;;;;5070737;28;20297;-82
2021/03/05 13:09:59;;;;;;;;;;;19.60;99.90;;;;;;5070746;28;19913;-81
2021/03/05 13:12:26;;;;;;;;;;;19.60;99.90;;;;;;5071047;28;19959;-81
2021/03/05 13:14:53;;;;;;;;;;;19.50;99.90;;;;;;5052942;28;20335;-81
2021/03/05 13:17:19;;;;;;;;;;;19.40;99.90;;;;;;5071062;28;19944;-81
2021/03/05 13:19:47;;;;;;;;;;;19.30;99.90;;;;;;5070749;28;19909;-81
2021/03/05 13:22:15;;;;;;;;;;;19.30;99.90;;;;;;5070593;28;19916;-80
2021/03/05 13:24:43;;;;;;;;;;;19.30;99.90;;;;;;5070606;28;20679;-81
2021/03/05 13:27:10;;;;;;;;;;;19.30;99.90;;;;;;5052732;28;19919;-83
2021/03/05 13:29:36;;;;;;;;;;;19.20;99.90;;;;;;5070840;28;19995;-80
2021/03/05 13:32:03;;;;;;;;;;;19.30;99.90;;;;;;5070527;28;19920;-82
2021/03/05 13:34:30;;;;;;;;;;;19.30;99.90;;;;;;5052327;28;20286;-80
2021/03/05 13:36:58;;;;;;;;;;;19.30;99.90;;;;;;5070577;28;19967;-79
2021/03/05 13:39:25;;;;;;;;;;;19.30;99.90;;;;;;5070751;28;20032;-81
2021/03/05 13:41:52;;;;;;;;;;;19.30;99.90;;;;;;5071358;28;19909;-82
2021/03/05 13:44:19;;;;;;;;;;;19.30;99.90;;;;;;5082150;28;19913;-78
2021/03/05 13:46:45;;;;;;;;;;;19.30;99.90;;;;;;5089182;28;19912;-78
2021/03/05 13:49:12;;;;;;;;;;;19.30;99.90;;;;;;5063301;28;19912;-83
2021/03/05 13:51:39;;;;;;;;;;;19.40;99.90;;;;;;5074952;28;20023;-83
2021/03/05 13:54:06;;;;;;;;;;;19.30;99.90;;;;;;5056616;28;20358;-82
2021/03/05 13:56:33;;;;;;;;;;;19.40;99.90;;;;;;5074412;28;19913;-83
2021/03/05 13:59:03;;;;;;;;;;;19.40;99.90;;;;;;5074037;28;19908;-80
2021/03/05 14:01:29;;;;;;;;;;;19.40;99.90;;;;;;5055959;28;19908;-80
2021/03/05 14:03:56;;;;;;;;;;;19.40;99.90;;;;;;5055928;28;19912;-81
2021/03/05 14:06:24;;;;;;;;;;;19.40;99.90;;;;;;5073810;28;19916;-81
2021/03/05 14:08:51;;;;;;;;;;;19.40;99.90;;;;;;5074088;28;19953;-81
2021/03/05 14:11:17;;;;;;;;;;;19.40;99.90;;;;;;5073996;28;19915;-82
2021/03/05 14:13:44;;;;;;;;;;;19.50;99.90;;;;;;5073426;28;20273;-81
2021/03/05 14:16:11;;;;;;;;;;;19.50;99.90;;;;;;5073462;28;19909;-82
2021/03/05 14:18:38;;;;;;;;;;;19.50;99.90;;;;;;5055537;28;19915;-81
2021/03/05 14:21:04;;;;;;;;;;;19.50;99.90;;;;;;5073577;28;19912;-80
2021/03/05 14:23:31;;;;;;;;;;;19.50;99.90;;;;;;5055598;28;20332;-81
2021/03/05 14:25:58;;;;;;;;;;;19.50;99.90;;;;;;5072953;28;20381;-80
2021/03/05 14:28:25;;;;;;;;;;;19.50;99.90;;;;;;5073487;28;19908;-83